Time;durP1;ratioP1;P1;durP2;ratioP2;P2;SDS_P1;SDS_P2;PMS_P1;PMS_P2;Temp;Humidity;BMP_temperature;BMP_pressure;BME280_temperature;BME280_humidity;BME280_pressure;Samples;Min_cycle;Max_cycle;Signal;HPM_P1;HPM_P2
2023/10/04 00:00:35;;;;;;;;;;;;;;;;;;5031609;28;20005;-64
2023/10/04 00:03:01;;;;;;;;;;;;;;;;;;5044268;28;19989;-63
2023/10/04 00:05:28;;;;;;;;;;;;;;;;;;5051241;28;19998;-62
2023/10/04 00:07:55;;;;;;;;;;;;;;;;;;5051436;28;20018;-63
2023/10/04 00:10:23;;;;;;;;;;;;;;;;;;5051478;28;19988;-63
2023/10/04 00:12:49;;;;;;;;;;;;;;;;;;5051471;28;20352;-63
2023/10/04 00:15:20;;;;;;;;;;;;;;;;;;5051609;28;20016;-64
2023/10/04 00:17:46;;;;;;;;;;;;;;;;;;5054079;28;19994;-63
2023/10/04 00:20:16;;;;;;;;;;;;;;;;;;5054277;28;19990;-64
2023/10/04 00:22:43;;;;;;;;;;;;;;;;;;5055561;28;19986;-62
2023/10/04 00:25:11;;;;;;;;;;;;;;;;;;5055469;28;20020;-63
2023/10/04 00:27:38;;;;;;;;;;;;;;;;;;5055284;28;20018;-62
2023/10/04 00:30:05;;;;;;;;;;;;;;;;;;5055540;28;20016;-63
2023/10/04 00:32:31;;;;;;;;;;;;;;;;;;5055033;28;19986;-63
2023/10/04 00:34:57;;;;;;;;;;;;;;;;;;5055239;28;19989;-63
2023/10/04 00:37:24;;;;;;;;;;;;;;;;;;5052927;28;20442;-62
2023/10/04 00:39:50;;;;;;;;;;;;;;;;;;5054962;28;19985;-63
2023/10/04 00:42:18;;;;;;;;;;;;;;;;;;5055268;28;19997;-62
2023/10/04 00:44:44;;;;;;;;;;;;;;;;;;5053507;28;20068;-64
2023/10/04 00:47:10;;;;;;;;;;;;;;;;;;5054754;28;20017;-63
2023/10/04 00:49:37;;;;;;;;;;;;;;;;;;5055041;28;19997;-65
2023/10/04 00:52:08;;;;;;;;;;;;;;;;;;5054952;28;20449;-63
2023/10/04 00:54:34;;;;;;;;;;;;;;;;;;5053836;28;19995;-63
2023/10/04 00:57:00;;;;;;;;;;;;;;;;;;5054857;28;20529;-64
2023/10/04 00:59:26;;;;;;;;;;;;;;;;;;5054892;28;20093;-63
2023/10/04 01:01:52;;;;;;;;;;;;;;;;;;5054542;28;19989;-63
2023/10/04 01:04:18;;;;;;;;;;;;;;;;;;5054532;28;19988;-64
2023/10/04 01:06:44;;;;;;;;;;;;;;;;;;5054458;28;20468;-63
2023/10/04 01:09:11;;;;;;;;;;;;;;;;;;5054696;28;20041;-63
2023/10/04 01:11:37;;;;;;;;;;;;;;;;;;5051931;28;19990;-63
2023/10/04 01:14:18;;;;;;;;;;;;;;;;;;5054554;28;19989;-63
2023/10/04 01:16:44;;;;;;;;;;;;;;;;;;5054220;28;19986;-64
2023/10/04 01:19:15;;;;;;;;;;;;;;;;;;5054335;28;19982;-62
2023/10/04 01:21:41;;;;;;;;;;;;;;;;;;5054269;28;20040;-62
2023/10/04 01:24:10;;;;;;;;;;;;;;;;;;5054040;28;20021;-63
2023/10/04 01:26:37;;;;;;;;;;;;;;;;;;5054077;28;20477;-63
2023/10/04 01:29:07;;;;;;;;;;;;;;;;;;5052073;28;19989;-63
2023/10/04 01:31:33;;;;;;;;;;;;;;;;;;5054123;28;19989;-62
2023/10/04 01:33:59;;;;;;;;;;;;;;;;;;5053918;28;19986;-63
2023/10/04 01:36:26;;;;;;;;;;;;;;;;;;5053972;28;20012;-62
2023/10/04 01:38:53;;;;;;;;;;;;;;;;;;5054153;28;20088;-62
2023/10/04 01:41:19;;;;;;;;;;;;;;;;;;5053912;28;20039;-63
2023/10/04 01:43:46;;;;;;;;;;;;;;;;;;5054089;28;20523;-62
2023/10/04 01:46:12;;;;;;;;;;;;;;;;;;5052234;28;20041;-64
2023/10/04 01:48:38;;;;;;;;;;;;;;;;;;5053833;28;19993;-63
2023/10/04 01:51:04;;;;;;;;;;;;;;;;;;5053758;28;19986;-62
2023/10/04 01:53:33;;;;;;;;;;;;;;;;;;5053784;28;20032;-62
2023/10/04 01:55:59;;;;;;;;;;;;;;;;;;5053661;28;20108;-64
2023/10/04 01:58:25;;;;;;;;;;;;;;;;;;5053695;28;19985;-64
2023/10/04 02:00:51;;;;;;;;;;;;;;;;;;5053458;28;19982;-63
2023/10/04 02:03:17;;;;;;;;;;;;;;;;;;5052446;28;19996;-64
2023/10/04 02:05:45;;;;;;;;;;;;;;;;;;5053269;28;20426;-64
2023/10/04 02:08:12;;;;;;;;;;;;;;;;;;5053465;28;20013;-63
2023/10/04 02:10:38;;;;;;;;;;;;;;;;;;5053568;28;19997;-63
2023/10/04 02:13:07;;;;;;;;;;;;;;;;;;5053396;28;19986;-63
2023/10/04 02:15:32;;;;;;;;;;;;;;;;;;5053234;28;19992;-63
2023/10/04 02:17:58;;;;;;;;;;;;;;;;;;5053286;28;20080;-63
2023/10/04 02:20:25;;;;;;;;;;;;;;;;;;5050241;28;20038;-63
2023/10/04 02:22:51;;;;;;;;;;;;;;;;;;5033236;28;19989;-64
2023/10/04 02:25:19;;;;;;;;;;;;;;;;;;5033361;28;19986;-63
2023/10/04 02:27:46;;;;;;;;;;;;;;;;;;5033372;28;20044;-64
2023/10/04 02:30:15;;;;;;;;;;;;;;;;;;5033136;28;20065;-64
2023/10/04 02:32:41;;;;;;;;;;;;;;;;;;5032982;28;20177;-64
2023/10/04 02:35:07;;;;;;;;;;;;;;;;;;5040375;28;20029;-63
2023/10/04 02:37:34;;;;;;;;;;;;;;;;;;5037437;28;19986;-63
2023/10/04 02:40:01;;;;;;;;;;;;;;;;;;5044200;28;19986;-63
2023/10/04 02:42:28;;;;;;;;;;;;;;;;;;5052845;28;20570;-63
2023/10/04 02:44:54;;;;;;;;;;;;;;;;;;5033427;28;20025;-63
2023/10/04 02:47:20;;;;;;;;;;;;;;;;;;5032733;28;20010;-62
2023/10/04 02:49:47;;;;;;;;;;;;;;;;;;5032876;28;20043;-63
2023/10/04 02:52:13;;;;;;;;;;;;;;;;;;5032933;28;19990;-64
2023/10/04 02:54:41;;;;;;;;;;;;;;;;;;5050621;28;19990;-63
2023/10/04 02:57:07;;;;;;;;;;;;;;;;;;5032595;28;19990;-63
2023/10/04 02:59:33;;;;;;;;;;;;;;;;;;5034753;28;20137;-63
2023/10/04 03:02:00;;;;;;;;;;;;;;;;;;5048236;28;19994;-62
2023/10/04 03:04:26;;;;;;;;;;;;;;;;;;5052334;28;19986;-65
2023/10/04 03:06:52;;;;;;;;;;;;;;;;;;5051998;28;20155;-63
2023/10/04 03:09:18;;;;;;;;;;;;;;;;;;5051392;28;19986;-63
2023/10/04 03:11:44;;;;;;;;;;;;;;;;;;5052100;28;19989;-63
2023/10/04 03:14:11;;;;;;;;;;;;;;;;;;5052168;28;19986;-62
2023/10/04 03:16:40;;;;;;;;;;;;;;;;;;5052148;28;19998;-63
2023/10/04 03:19:06;;;;;;;;;;;;;;;;;;5051948;28;20012;-63
2023/10/04 03:21:37;;;;;;;;;;;;;;;;;;5051897;28;19996;-62
2023/10/04 03:24:06;;;;;;;;;;;;;;;;;;5051832;28;20025;-64
2023/10/04 03:26:32;;;;;;;;;;;;;;;;;;5049104;28;20010;-63
2023/10/04 03:28:58;;;;;;;;;;;;;;;;;;5032188;28;19986;-63
2023/10/04 03:31:24;;;;;;;;;;;;;;;;;;5041957;28;19989;-62
2023/10/04 03:33:51;;;;;;;;;;;;;;;;;;5051596;28;19989;-62
2023/10/04 03:36:21;;;;;;;;;;;;;;;;;;5051705;28;19990;-63
2023/10/04 03:38:49;;;;;;;;;;;;;;;;;;5051347;28;19986;-63
2023/10/04 03:41:16;;;;;;;;;;;;;;;;;;5051669;28;20367;-62
2023/10/04 03:43:42;;;;;;;;;;;;;;;;;;5047675;28;20056;-62
2023/10/04 03:46:17;;;;;;;;;;;;;;;;;;5038336;28;20762;-62
2023/10/04 03:48:43;;;;;;;;;;;;;;;;;;5051831;28;20445;-63
2023/10/04 03:51:09;;;;;;;;;;;;;;;;;;5049752;28;20461;-62
2023/10/04 03:53:36;;;;;;;;;;;;;;;;;;5051275;28;19986;-64
2023/10/04 03:56:04;;;;;;;;;;;;;;;;;;5038100;28;19985;-63
2023/10/04 03:58:30;;;;;;;;;;;;;;;;;;5051732;28;19992;-63
2023/10/04 04:00:56;;;;;;;;;;;;;;;;;;5040896;28;20029;-64
2023/10/04 04:03:22;;;;;;;;;;;;;;;;;;5051497;28;19990;-63
2023/10/04 04:05:50;;;;;;;;;;;;;;;;;;5051182;28;20009;-63
2023/10/04 04:08:17;;;;;;;;;;;;;;;;;;5051086;28;20049;-62
2023/10/04 04:10:43;;;;;;;;;;;;;;;;;;5040228;28;19998;-62
2023/10/04 04:13:09;;;;;;;;;;;;;;;;;;5049839;28;19986;-64
2023/10/04 04:15:36;;;;;;;;;;;;;;;;;;5050650;28;19992;-63
2023/10/04 04:18:06;;;;;;;;;;;;;;;;;;5050999;28;19997;-64
2023/10/04 04:20:35;;;;;;;;;;;;;;;;;;5051056;28;20088;-62
2023/10/04 04:23:03;;;;;;;;;;;;;;;;;;5051397;28;19985;-62
2023/10/04 04:25:29;;;;;;;;;;;;;;;;;;5050965;28;20060;-61
2023/10/04 04:27:56;;;;;;;;;;;;;;;;;;5050838;28;20013;-63
2023/10/04 04:30:23;;;;;;;;;;;;;;;;;;5051138;28;19986;-63
2023/10/04 04:32:52;;;;;;;;;;;;;;;;;;5050824;28;20446;-61
2023/10/04 04:35:52;;;;;;;;;;;;;;;;;;5050018;28;20000;-62
2023/10/04 04:38:17;;;;;;;;;;;;;;;;;;5030416;28;19994;-61
2023/10/04 04:40:49;;;;;;;;;;;;;;;;;;5031531;28;19982;-62
2023/10/04 04:43:25;;;;;;;;;;;;;;;;;;5050735;28;20033;-63
2023/10/04 04:45:51;;;;;;;;;;;;;;;;;;5050788;28;20021;-63
2023/10/04 04:48:18;;;;;;;;;;;;;;;;;;5051064;28;20614;-63
2023/10/04 04:50:44;;;;;;;;;;;;;;;;;;5050075;28;19994;-64
2023/10/04 04:53:14;;;;;;;;;;;;;;;;;;5050748;28;19982;-64
2023/10/04 04:55:40;;;;;;;;;;;;;;;;;;5050912;28;19985;-64
2023/10/04 04:58:06;;;;;;;;;;;;;;;;;;5051031;28;20119;-64
2023/10/04 05:00:33;;;;;;;;;;;;;;;;;;5050833;28;20469;-63
2023/10/04 05:03:00;;;;;;;;;;;;;;;;;;5051901;28;19982;-64
2023/10/04 05:05:28;;;;;;;;;;;;;;;;;;5054510;28;20002;-64
2023/10/04 05:07:54;;;;;;;;;;;;;;;;;;5053110;28;20097;-63
2023/10/04 05:10:22;;;;;;;;;;;;;;;;;;5054564;28;20323;-64
2023/10/04 05:12:48;;;;;;;;;;;;;;;;;;5054401;28;19986;-63
2023/10/04 05:15:33;;;;;;;;;;;;;;;;;;5054399;28;20005;-63
2023/10/04 05:18:15;;;;;;;;;;;;;;;;;;5054122;28;19989;-65
2023/10/04 05:20:41;;;;;;;;;;;;;;;;;;5054235;28;20355;-65
2023/10/04 05:23:09;;;;;;;;;;;;;;;;;;5054199;28;20595;-65
2023/10/04 05:25:35;;;;;;;;;;;;;;;;;;5049288;28;20111;-64
2023/10/04 05:28:02;;;;;;;;;;;;;;;;;;5034480;28;20014;-63
2023/10/04 05:30:28;;;;;;;;;;;;;;;;;;5034175;28;19990;-63
2023/10/04 05:32:54;;;;;;;;;;;;;;;;;;5040167;28;20051;-63
2023/10/04 05:35:21;;;;;;;;;;;;;;;;;;5052503;28;20489;-65
2023/10/04 05:37:47;;;;;;;;;;;;;;;;;;5053624;28;20081;-64
2023/10/04 05:40:16;;;;;;;;;;;;;;;;;;5053864;28;19992;-62
2023/10/04 05:42:42;;;;;;;;;;;;;;;;;;5040028;28;20084;-64
2023/10/04 05:45:10;;;;;;;;;;;;;;;;;;5033615;28;20072;-63
2023/10/04 05:47:37;;;;;;;;;;;;;;;;;;5033611;28;20021;-63
2023/10/04 05:50:05;;;;;;;;;;;;;;;;;;5033513;28;20439;-65
2023/10/04 05:52:32;;;;;;;;;;;;;;;;;;5033866;28;20001;-64
2023/10/04 05:54:59;;;;;;;;;;;;;;;;;;5036472;28;19986;-64
2023/10/04 05:57:25;;;;;;;;;;;;;;;;;;5052379;28;19993;-64
2023/10/04 05:59:51;;;;;;;;;;;;;;;;;;5051770;28;20458;-64
2023/10/04 06:02:17;;;;;;;;;;;;;;;;;;5053102;28;19990;-64
2023/10/04 06:04:43;;;;;;;;;;;;;;;;;;5053112;28;19986;-65
2023/10/04 06:07:09;;;;;;;;;;;;;;;;;;5052891;28;20536;-65
2023/10/04 06:09:42;;;;;;;;;;;;;;;;;;5053155;28;19985;-64
2023/10/04 06:12:07;;;;;;;;;;;;;;;;;;5053181;28;19986;-65
2023/10/04 06:14:35;;;;;;;;;;;;;;;;;;5052546;28;20043;-65
2023/10/04 06:17:01;;;;;;;;;;;;;;;;;;5051709;28;19990;-64
2023/10/04 06:19:28;;;;;;;;;;;;;;;;;;5048229;28;20460;-66
2023/10/04 06:21:54;;;;;;;;;;;;;;;;;;5050434;28;20420;-66
2023/10/04 06:24:20;;;;;;;;;;;;;;;;;;5072932;28;20473;-65
2023/10/04 06:26:46;;;;;;;;;;;;;;;;;;5041698;28;20048;-64
2023/10/04 06:29:11;;;;;;;;;;;;;;;;;;5032843;28;20389;-64
2023/10/04 06:31:37;;;;;;;;;;;;;;;;;;5038036;28;19985;-65
2023/10/04 06:34:03;;;;;;;;;;;;;;;;;;5048738;28;20040;-66
2023/10/04 06:36:33;;;;;;;;;;;;;;;;;;5039886;28;19986;-66
2023/10/04 06:38:59;;;;;;;;;;;;;;;;;;5039752;28;20080;-64
2023/10/04 06:41:25;;;;;;;;;;;;;;;;;;5041712;28;20080;-64
2023/10/04 06:43:51;;;;;;;;;;;;;;;;;;5052713;28;19981;-65
2023/10/04 06:46:17;;;;;;;;;;;;;;;;;;5049847;28;20033;-65
2023/10/04 06:48:43;;;;;;;;;;;;;;;;;;5031854;28;20467;-65
2023/10/04 06:51:10;;;;;;;;;;;;;;;;;;5031196;28;20439;-64
2023/10/04 06:53:41;;;;;;;;;;;;;;;;;;5032061;28;19990;-63
2023/10/04 06:56:07;;;;;;;;;;;;;;;;;;5032653;28;20017;-65
2023/10/04 06:58:33;;;;;;;;;;;;;;;;;;5051250;28;20363;-64
2023/10/04 07:00:59;;;;;;;;;;;;;;;;;;5047485;28;19990;-64
2023/10/04 07:03:27;;;;;;;;;;;;;;;;;;5034357;28;20008;-64
2023/10/04 07:05:53;;;;;;;;;;;;;;;;;;5032342;28;20005;-63
2023/10/04 07:08:19;;;;;;;;;;;;;;;;;;5041239;28;20010;-63
2023/10/04 07:10:45;;;;;;;;;;;;;;;;;;5034186;28;19996;-64
2023/10/04 07:13:11;;;;;;;;;;;;;;;;;;5030597;28;19986;-64
2023/10/04 07:15:39;;;;;;;;;;;;;;;;;;5032176;28;19986;-64
2023/10/04 07:18:09;;;;;;;;;;;;;;;;;;5032041;28;19993;-64
2023/10/04 07:20:35;;;;;;;;;;;;;;;;;;5032391;28;19989;-63
2023/10/04 07:23:07;;;;;;;;;;;;;;;;;;5032461;28;19990;-64
2023/10/04 07:25:34;;;;;;;;;;;;;;;;;;5032141;28;20053;-64
2023/10/04 07:28:03;;;;;;;;;;;;;;;;;;5031269;28;20117;-64
2023/10/04 07:30:29;;;;;;;;;;;;;;;;;;5031400;28;19997;-64
2023/10/04 07:32:55;;;;;;;;;;;;;;;;;;5032275;28;19986;-64
2023/10/04 07:35:25;;;;;;;;;;;;;;;;;;5032010;28;19982;-65
2023/10/04 07:37:51;;;;;;;;;;;;;;;;;;5032070;28;19986;-64
2023/10/04 07:40:17;;;;;;;;;;;;;;;;;;5031879;28;19990;-64
2023/10/04 07:42:42;;;;;;;;;;;;;;;;;;5031694;28;19986;-64
2023/10/04 07:45:08;;;;;;;;;;;;;;;;;;5046547;28;20025;-63
2023/10/04 07:47:36;;;;;;;;;;;;;;;;;;5051416;28;20108;-64
2023/10/04 07:50:02;;;;;;;;;;;;;;;;;;5051933;28;19993;-63
2023/10/04 07:52:29;;;;;;;;;;;;;;;;;;5051823;28;19992;-65
2023/10/04 07:54:59;;;;;;;;;;;;;;;;;;5051507;28;19982;-65
2023/10/04 07:57:25;;;;;;;;;;;;;;;;;;5051597;28;19989;-65
2023/10/04 07:59:51;;;;;;;;;;;;;;;;;;5050545;28;20451;-64
2023/10/04 08:02:17;;;;;;;;;;;;;;;;;;5051613;28;20397;-65
2023/10/04 08:04:45;;;;;;;;;;;;;;;;;;5051422;28;20115;-64
2023/10/04 08:07:12;;;;;;;;;;;;;;;;;;5051451;28;20009;-64
2023/10/04 08:09:38;;;;;;;;;;;;;;;;;;5051388;28;19986;-63
2023/10/04 08:12:07;;;;;;;;;;;;;;;;;;5051439;28;19989;-63
2023/10/04 08:14:33;;;;;;;;;;;;;;;;;;5050109;28;20389;-63
2023/10/04 08:16:59;;;;;;;;;;;;;;;;;;5051424;28;20081;-64
2023/10/04 08:19:26;;;;;;;;;;;;;;;;;;5051356;28;20004;-64
2023/10/04 08:21:52;;;;;;;;;;;;;;;;;;5051316;28;19988;-64
2023/10/04 08:24:18;;;;;;;;;;;;;;;;;;5051346;28;19985;-64
2023/10/04 08:26:44;;;;;;;;;;;;;;;;;;5051481;28;20259;-64
2023/10/04 08:29:10;;;;;;;;;;;;;;;;;;5051314;28;20136;-64
2023/10/04 08:31:36;;;;;;;;;;;;;;;;;;5039101;28;19994;-64
2023/10/04 08:34:02;;;;;;;;;;;;;;;;;;5031125;28;20413;-64
2023/10/04 08:36:28;;;;;;;;;;;;;;;;;;5031143;28;20023;-64
2023/10/04 08:38:54;;;;;;;;;;;;;;;;;;5033745;28;20266;-63
2023/10/04 08:41:20;;;;;;;;;;;;;;;;;;5035168;28;19990;-63
2023/10/04 08:43:47;;;;;;;;;;;;;;;;;;5035126;28;20081;-63
2023/10/04 08:46:13;;;;;;;;;;;;;;;;;;5034889;28;20360;-63
2023/10/04 08:48:39;;;;;;;;;;;;;;;;;;5034712;28;19993;-63
2023/10/04 08:51:07;;;;;;;;;;;;;;;;;;5034966;28;19992;-64
2023/10/04 08:53:33;;;;;;;;;;;;;;;;;;5033551;28;19986;-64
2023/10/04 08:55:59;;;;;;;;;;;;;;;;;;5034969;28;19997;-64
2023/10/04 08:58:25;;;;;;;;;;;;;;;;;;5034973;28;19982;-64
2023/10/04 09:00:51;;;;;;;;;;;;;;;;;;5034966;28;20120;-64
2023/10/04 09:03:17;;;;;;;;;;;;;;;;;;5044223;28;20366;-64
2023/10/04 09:05:46;;;;;;;;;;;;;;;;;;5054511;28;20002;-64
2023/10/04 09:08:12;;;;;;;;;;;;;;;;;;5054379;28;20009;-63
2023/10/04 09:10:39;;;;;;;;;;;;;;;;;;5054937;28;19997;-64
2023/10/04 09:13:06;;;;;;;;;;;;;;;;;;5054574;28;19986;-64
2023/10/04 09:15:31;;;;;;;;;;;;;;;;;;5054667;28;19986;-64
2023/10/04 09:17:57;;;;;;;;;;;;;;;;;;5054286;28;20013;-63
2023/10/04 09:20:23;;;;;;;;;;;;;;;;;;5050189;28;19986;-64
2023/10/04 09:22:50;;;;;;;;;;;;;;;;;;5034289;28;20024;-64
2023/10/04 09:25:16;;;;;;;;;;;;;;;;;;5034744;28;19990;-63
2023/10/04 09:27:42;;;;;;;;;;;;;;;;;;5034327;28;20017;-64
2023/10/04 09:30:09;;;;;;;;;;;;;;;;;;5034197;28;20450;-64
2023/10/04 09:32:35;;;;;;;;;;;;;;;;;;5034092;28;20431;-64
2023/10/04 09:35:01;;;;;;;;;;;;;;;;;;5034209;28;20032;-64
2023/10/04 09:37:27;;;;;;;;;;;;;;;;;;5034493;28;19993;-64
2023/10/04 09:39:53;;;;;;;;;;;;;;;;;;5040973;28;20463;-64
2023/10/04 09:42:19;;;;;;;;;;;;;;;;;;5033963;28;19989;-64
2023/10/04 09:44:45;;;;;;;;;;;;;;;;;;5033750;28;20124;-63
2023/10/04 09:47:11;;;;;;;;;;;;;;;;;;5033889;28;20128;-65
2023/10/04 09:49:40;;;;;;;;;;;;;;;;;;5032217;28;20232;-64
2023/10/04 09:52:06;;;;;;;;;;;;;;;;;;5033859;28;19982;-65
2023/10/04 09:54:34;;;;;;;;;;;;;;;;;;5033936;28;20008;-64
2023/10/04 09:57:00;;;;;;;;;;;;;;;;;;5046796;28;19989;-64
2023/10/04 09:59:26;;;;;;;;;;;;;;;;;;5053998;28;19985;-64
2023/10/04 10:01:53;;;;;;;;;;;;;;;;;;5053607;28;19993;-64
2023/10/04 10:04:18;;;;;;;;;;;;;;;;;;5052252;28;19989;-64
2023/10/04 10:06:45;;;;;;;;;;;;;;;;;;5053508;28;20014;-65
2023/10/04 10:09:12;;;;;;;;;;;;;;;;;;5053481;28;20419;-64
2023/10/04 10:11:38;;;;;;;;;;;;;;;;;;5053575;28;20076;-65
2023/10/04 10:14:04;;;;;;;;;;;;;;;;;;5046065;28;20485;-64
2023/10/04 10:16:30;;;;;;;;;;;;;;;;;;5033484;28;19986;-64
2023/10/04 10:18:57;;;;;;;;;;;;;;;;;;5033258;28;20370;-63
2023/10/04 10:21:23;;;;;;;;;;;;;;;;;;5033856;28;20060;-64
2023/10/04 10:23:48;;;;;;;;;;;;;;;;;;5033414;28;19982;-65
2023/10/04 10:26:14;;;;;;;;;;;;;;;;;;5033033;28;20442;-64
2023/10/04 10:28:40;;;;;;;;;;;;;;;;;;5033317;28;19997;-64
2023/10/04 10:31:06;;;;;;;;;;;;;;;;;;5032633;28;20524;-64
2023/10/04 10:33:32;;;;;;;;;;;;;;;;;;5033059;28;20008;-64
2023/10/04 10:35:59;;;;;;;;;;;;;;;;;;5032991;28;19989;-65
2023/10/04 10:38:25;;;;;;;;;;;;;;;;;;5031671;28;19986;-65
2023/10/04 10:40:51;;;;;;;;;;;;;;;;;;5033124;28;20339;-64
2023/10/04 10:43:18;;;;;;;;;;;;;;;;;;5032929;28;20040;-63
2023/10/04 10:45:44;;;;;;;;;;;;;;;;;;5032670;28;20532;-64
2023/10/04 10:48:10;;;;;;;;;;;;;;;;;;5034600;28;20010;-64
2023/10/04 10:50:37;;;;;;;;;;;;;;;;;;5052854;28;20145;-65
2023/10/04 10:53:03;;;;;;;;;;;;;;;;;;5052793;28;19988;-64
2023/10/04 10:55:29;;;;;;;;;;;;;;;;;;5052582;28;20025;-64
2023/10/04 10:57:55;;;;;;;;;;;;;;;;;;5051528;28;20427;-63
2023/10/04 11:00:23;;;;;;;;;;;;;;;;;;5052514;28;20076;-64
2023/10/04 11:02:53;;;;;;;;;;;;;;;;;;5052682;28;20028;-67
2023/10/04 11:05:20;;;;;;;;;;;;;;;;;;5051354;28;20008;-66
2023/10/04 11:07:47;;;;;;;;;;;;;;;;;;5052524;28;20119;-64
2023/10/04 11:10:15;;;;;;;;;;;;;;;;;;5052600;28;20030;-64
2023/10/04 11:12:42;;;;;;;;;;;;;;;;;;5052459;28;20353;-64
2023/10/04 11:15:08;;;;;;;;;;;;;;;;;;5052627;28;20267;-65
2023/10/04 11:17:37;;;;;;;;;;;;;;;;;;5052592;28;19990;-65
2023/10/04 11:20:03;;;;;;;;;;;;;;;;;;5052323;28;19989;-64
2023/10/04 11:22:29;;;;;;;;;;;;;;;;;;5043195;28;19986;-64
2023/10/04 11:24:55;;;;;;;;;;;;;;;;;;5032158;28;19986;-64
2023/10/04 11:27:21;;;;;;;;;;;;;;;;;;5032095;28;20101;-64
2023/10/04 11:29:49;;;;;;;;;;;;;;;;;;5032108;28;20051;-64
2023/10/04 11:32:15;;;;;;;;;;;;;;;;;;5032026;28;19997;-64
2023/10/04 11:34:40;;;;;;;;;;;;;;;;;;5031934;28;19986;-63
2023/10/04 11:37:07;;;;;;;;;;;;;;;;;;5032115;28;20025;-64
2023/10/04 11:39:33;;;;;;;;;;;;;;;;;;5031562;28;20102;-66
2023/10/04 11:41:59;;;;;;;;;;;;;;;;;;5051883;28;19993;-66
2023/10/04 11:44:25;;;;;;;;;;;;;;;;;;5051685;28;20010;-65
2023/10/04 11:46:51;;;;;;;;;;;;;;;;;;5051633;28;20394;-65
2023/10/04 11:49:17;;;;;;;;;;;;;;;;;;5051590;28;20080;-67
2023/10/04 11:51:43;;;;;;;;;;;;;;;;;;5051630;28;20060;-65
2023/10/04 11:54:09;;;;;;;;;;;;;;;;;;5051916;28;19982;-64
2023/10/04 11:56:35;;;;;;;;;;;;;;;;;;5051631;28;19986;-65
2023/10/04 11:59:01;;;;;;;;;;;;;;;;;;5050783;28;20572;-64
2023/10/04 12:01:27;;;;;;;;;;;;;;;;;;5051516;28;19985;-65
2023/10/04 12:04:02;;;;;;;;;;;;;;;;;;5051626;28;19985;-65
2023/10/04 12:06:30;;;;;;;;;;;;;;;;;;5051359;28;20001;-65
2023/10/04 12:08:59;;;;;;;;;;;;;;;;;;5050033;28;20370;-64
2023/10/04 12:11:25;;;;;;;;;;;;;;;;;;5051310;28;20549;-64
2023/10/04 12:13:51;;;;;;;;;;;;;;;;;;5032759;28;19991;-65
2023/10/04 12:16:17;;;;;;;;;;;;;;;;;;5031530;28;20009;-64
2023/10/04 12:18:43;;;;;;;;;;;;;;;;;;5031590;28;20029;-65
2023/10/04 12:21:09;;;;;;;;;;;;;;;;;;5030025;28;20479;-65
2023/10/04 12:23:35;;;;;;;;;;;;;;;;;;5031276;28;20073;-63
2023/10/04 12:26:01;;;;;;;;;;;;;;;;;;5031373;28;19986;-64
2023/10/04 12:28:29;;;;;;;;;;;;;;;;;;5030818;28;20025;-64
2023/10/04 12:30:55;;;;;;;;;;;;;;;;;;5031370;28;20005;-64
2023/10/04 12:33:21;;;;;;;;;;;;;;;;;;5031586;28;19986;-65
2023/10/04 12:35:48;;;;;;;;;;;;;;;;;;5031356;28;20474;-64
2023/10/04 12:38:14;;;;;;;;;;;;;;;;;;5031149;28;19990;-65
2023/10/04 12:40:42;;;;;;;;;;;;;;;;;;5031245;28;19986;-66
2023/10/04 12:43:08;;;;;;;;;;;;;;;;;;5031246;28;20410;-65
2023/10/04 12:45:34;;;;;;;;;;;;;;;;;;5041235;28;20018;-65
2023/10/04 12:48:00;;;;;;;;;;;;;;;;;;5049578;28;20021;-65
2023/10/04 12:50:26;;;;;;;;;;;;;;;;;;5050943;28;19982;-66
2023/10/04 12:52:52;;;;;;;;;;;;;;;;;;5051150;28;19986;-65
2023/10/04 12:55:18;;;;;;;;;;;;;;;;;;5050968;28;20037;-64
2023/10/04 12:57:44;;;;;;;;;;;;;;;;;;5050825;28;20140;-64
2023/10/04 13:00:16;;;;;;;;;;;;;;;;;;5050999;28;19982;-64
2023/10/04 13:02:42;;;;;;;;;;;;;;;;;;5049663;28;19990;-65
2023/10/04 13:05:10;;;;;;;;;;;;;;;;;;5050651;28;20100;-64
2023/10/04 13:07:37;;;;;;;;;;;;;;;;;;5050653;28;20005;-64
2023/10/04 13:10:09;;;;;;;;;;;;;;;;;;5051138;28;19986;-65
2023/10/04 13:12:36;;;;;;;;;;;;;;;;;;5050860;28;20381;-65
2023/10/04 13:15:02;;;;;;;;;;;;;;;;;;5050741;28;20474;-66
2023/10/04 13:17:28;;;;;;;;;;;;;;;;;;5049519;28;20084;-64
2023/10/04 13:19:53;;;;;;;;;;;;;;;;;;5050734;28;20326;-64
2023/10/04 13:22:22;;;;;;;;;;;;;;;;;;5050671;28;19989;-65
2023/10/04 13:24:48;;;;;;;;;;;;;;;;;;5051564;28;20378;-65
2023/10/04 13:27:13;;;;;;;;;;;;;;;;;;5054037;28;20014;-65
2023/10/04 13:29:40;;;;;;;;;;;;;;;;;;5054104;28;20075;-65
2023/10/04 13:32:07;;;;;;;;;;;;;;;;;;5054170;28;19989;-65
2023/10/04 13:34:32;;;;;;;;;;;;;;;;;;5052877;28;20512;-64
2023/10/04 13:36:58;;;;;;;;;;;;;;;;;;5053916;28;19982;-65
2023/10/04 13:39:27;;;;;;;;;;;;;;;;;;5043680;28;20037;-64
2023/10/04 13:41:53;;;;;;;;;;;;;;;;;;5032555;28;19989;-65
2023/10/04 13:44:19;;;;;;;;;;;;;;;;;;5033811;28;20019;-64
2023/10/04 13:46:48;;;;;;;;;;;;;;;;;;5033731;28;20386;-64
2023/10/04 13:49:14;;;;;;;;;;;;;;;;;;5033943;28;20370;-65
2023/10/04 13:51:42;;;;;;;;;;;;;;;;;;5033639;28;19997;-65
2023/10/04 13:54:08;;;;;;;;;;;;;;;;;;5034073;28;19990;-65
2023/10/04 13:56:35;;;;;;;;;;;;;;;;;;5037759;28;20136;-64
2023/10/04 13:59:02;;;;;;;;;;;;;;;;;;5052283;28;19986;-68
2023/10/04 14:01:28;;;;;;;;;;;;;;;;;;5053504;28;19990;-64
2023/10/04 14:03:54;;;;;;;;;;;;;;;;;;5053455;28;20310;-65
2023/10/04 14:06:21;;;;;;;;;;;;;;;;;;5053565;28;20009;-64
2023/10/04 14:08:48;;;;;;;;;;;;;;;;;;5053513;28;20032;-65
2023/10/04 14:11:15;;;;;;;;;;;;;;;;;;5053554;28;19986;-64
2023/10/04 14:13:42;;;;;;;;;;;;;;;;;;5047020;28;20496;-65
2023/10/04 14:16:08;;;;;;;;;;;;;;;;;;5031978;28;19990;-64
2023/10/04 14:18:33;;;;;;;;;;;;;;;;;;5033096;28;19986;-64
2023/10/04 14:20:59;;;;;;;;;;;;;;;;;;5033228;28;20080;-64
2023/10/04 14:23:25;;;;;;;;;;;;;;;;;;5033421;28;19986;-65
2023/10/04 14:25:54;;;;;;;;;;;;;;;;;;5033371;28;19986;-64
2023/10/04 14:28:20;;;;;;;;;;;;;;;;;;5032024;28;20018;-65
2023/10/04 14:30:47;;;;;;;;;;;;;;;;;;5038621;28;20357;-64
2023/10/04 14:33:13;;;;;;;;;;;;;;;;;;5053238;28;19989;-63
2023/10/04 14:35:39;;;;;;;;;;;;;;;;;;5052746;28;20473;-64
2023/10/04 14:38:06;;;;;;;;;;;;;;;;;;5052948;28;19981;-64
2023/10/04 14:40:32;;;;;;;;;;;;;;;;;;5052795;28;20071;-65
2023/10/04 14:42:58;;;;;;;;;;;;;;;;;;5053077;28;20028;-64
2023/10/04 14:45:24;;;;;;;;;;;;;;;;;;5052960;28;20018;-64
2023/10/04 14:47:50;;;;;;;;;;;;;;;;;;5051590;28;20419;-66
2023/10/04 14:50:16;;;;;;;;;;;;;;;;;;5052512;28;19990;-65
2023/10/04 14:52:42;;;;;;;;;;;;;;;;;;5052735;28;19985;-65
2023/10/04 14:55:08;;;;;;;;;;;;;;;;;;5052803;28;20076;-64
2023/10/04 14:57:34;;;;;;;;;;;;;;;;;;5052706;28;20036;-64
2023/10/04 15:00:00;;;;;;;;;;;;;;;;;;5052435;28;19986;-65
2023/10/04 15:02:26;;;;;;;;;;;;;;;;;;5051174;28;20100;-65
2023/10/04 15:04:53;;;;;;;;;;;;;;;;;;5052302;28;20028;-64
2023/10/04 15:07:19;;;;;;;;;;;;;;;;;;5052296;28;20025;-64
2023/10/04 15:09:44;;;;;;;;;;;;;;;;;;5052685;28;19988;-65
2023/10/04 15:12:10;;;;;;;;;;;;;;;;;;5046610;28;19993;-66
2023/10/04 15:14:37;;;;;;;;;;;;;;;;;;5032181;28;20089;-65
2023/10/04 15:17:03;;;;;;;;;;;;;;;;;;5041241;28;19988;-65
2023/10/04 15:19:30;;;;;;;;;;;;;;;;;;5032424;28;20012;-65
2023/10/04 15:21:56;;;;;;;;;;;;;;;;;;5035538;28;20088;-65
2023/10/04 15:24:22;;;;;;;;;;;;;;;;;;5043609;28;20327;-64
2023/10/04 15:26:49;;;;;;;;;;;;;;;;;;5042371;28;20028;-66
2023/10/04 15:29:15;;;;;;;;;;;;;;;;;;5038874;28;20158;-65
2023/10/04 15:31:42;;;;;;;;;;;;;;;;;;5043149;28;19994;-64
2023/10/04 15:34:09;;;;;;;;;;;;;;;;;;5031647;28;19990;-64
2023/10/04 15:36:35;;;;;;;;;;;;;;;;;;5038728;28;20075;-65
2023/10/04 15:39:02;;;;;;;;;;;;;;;;;;5052618;28;19992;-65
2023/10/04 15:41:28;;;;;;;;;;;;;;;;;;5049438;28;19993;-65
2023/10/04 15:43:54;;;;;;;;;;;;;;;;;;5040061;28;19986;-65
2023/10/04 15:46:20;;;;;;;;;;;;;;;;;;5047890;28;19998;-66
2023/10/04 15:48:46;;;;;;;;;;;;;;;;;;5045586;28;20017;-65
2023/10/04 15:51:12;;;;;;;;;;;;;;;;;;5047946;28;19986;-65
2023/10/04 15:53:38;;;;;;;;;;;;;;;;;;5031498;28;20163;-64
2023/10/04 15:56:05;;;;;;;;;;;;;;;;;;5035661;28;20040;-65
2023/10/04 15:58:33;;;;;;;;;;;;;;;;;;5037798;28;20077;-66
2023/10/04 16:01:00;;;;;;;;;;;;;;;;;;5049665;28;20418;-67
2023/10/04 16:03:26;;;;;;;;;;;;;;;;;;5035717;28;20025;-66
2023/10/04 16:05:52;;;;;;;;;;;;;;;;;;5047201;28;20060;-64
2023/10/04 16:08:18;;;;;;;;;;;;;;;;;;5039393;28;20025;-65
2023/10/04 16:10:44;;;;;;;;;;;;;;;;;;5031219;28;20041;-64
2023/10/04 16:13:11;;;;;;;;;;;;;;;;;;5032057;28;20069;-63
2023/10/04 16:15:37;;;;;;;;;;;;;;;;;;5031495;28;19986;-63
2023/10/04 16:18:04;;;;;;;;;;;;;;;;;;5033229;28;19990;-64
2023/10/04 16:20:30;;;;;;;;;;;;;;;;;;5057334;28;19989;-64
2023/10/04 16:22:57;;;;;;;;;;;;;;;;;;5036358;28;19986;-65
2023/10/04 16:25:23;;;;;;;;;;;;;;;;;;5030530;28;20483;-64
2023/10/04 16:27:50;;;;;;;;;;;;;;;;;;5031118;28;20072;-63
2023/10/04 16:30:16;;;;;;;;;;;;;;;;;;5030852;28;20058;-66
2023/10/04 16:32:41;;;;;;;;;;;;;;;;;;5038338;28;20001;-66
2023/10/04 16:35:13;;;;;;;;;;;;;;;;;;5038211;28;19989;-65
2023/10/04 16:37:39;;;;;;;;;;;;;;;;;;5030933;28;19994;-66
2023/10/04 16:40:06;;;;;;;;;;;;;;;;;;5030378;28;19990;-67
2023/10/04 16:42:32;;;;;;;;;;;;;;;;;;5028553;28;19986;-66